Time;durP1;ratioP1;P1;durP2;ratioP2;P2;SDS_P1;SDS_P2;PMS_P1;PMS_P2;Temp;Humidity;BMP_temperature;BMP_pressure;BME280_temperature;BME280_humidity;BME280_pressure;Samples;Min_cycle;Max_cycle;Signal;HPM_P1;HPM_P2
2022/03/21 00:02:23;;;;;;;72.43;47.27;;;4.00;99.90;;;;;;6204511;23;20167;-34
2022/03/21 00:04:49;;;;;;;81.53;48.73;;;4.00;99.90;;;;;;6205920;23;20024;-34
2022/03/21 00:07:14;;;;;;;80.47;49.80;;;3.90;99.90;;;;;;6186275;23;20016;-33
2022/03/21 00:09:40;;;;;;;80.40;52.60;;;4.00;99.90;;;;;;6205698;23;20021;-32
2022/03/21 00:12:06;;;;;;;75.17;48.83;;;4.00;99.90;;;;;;6204320;23;20468;-33
2022/03/21 00:14:32;;;;;;;76.07;50.30;;;4.00;99.90;;;;;;6205359;23;20156;-34
2022/03/21 00:16:59;;;;;;;75.83;48.80;;;3.90;99.90;;;;;;6186842;23;20204;-34
2022/03/21 00:19:26;;;;;;;79.43;51.20;;;4.00;99.90;;;;;;6202447;23;20104;-34
2022/03/21 00:21:52;;;;;;;71.63;47.77;;;3.90;99.90;;;;;;6205624;23;20020;-33
2022/03/21 00:24:17;;;;;;;73.90;47.87;;;3.90;99.90;;;;;;6202721;23;20029;-32
2022/03/21 00:26:43;;;;;;;73.43;47.53;;;3.90;99.90;;;;;;6160526;23;20107;-33
2022/03/21 00:29:09;;;;;;;69.03;44.40;;;3.90;99.90;;;;;;6204070;23;20261;-32
2022/03/21 00:31:36;;;;;;;69.20;45.33;;;3.80;99.90;;;;;;6207794;23;20339;-34
2022/03/21 00:34:02;;;;;;;71.03;44.97;;;3.80;99.90;;;;;;6205976;23;20024;-35
2022/03/21 00:36:28;;;;;;;74.03;47.73;;;3.80;99.90;;;;;;6192110;23;20056;-32
2022/03/21 00:38:54;;;;;;;74.17;46.10;;;3.80;99.90;;;;;;6201090;23;20107;-35
2022/03/21 00:41:22;;;;;;;77.20;46.07;;;3.70;99.90;;;;;;6207073;23;20023;-33
2022/03/21 00:43:47;;;;;;;76.13;46.67;;;3.70;99.90;;;;;;6204487;23;20031;-35
2022/03/21 00:46:13;;;;;;;78.47;48.50;;;3.70;99.90;;;;;;6195534;23;20020;-34
2022/03/21 00:48:39;;;;;;;74.93;47.47;;;3.70;99.90;;;;;;6199104;23;20028;-33
2022/03/21 00:51:05;;;;;;;76.37;48.20;;;3.60;99.90;;;;;;6207272;23;20077;-33
2022/03/21 00:53:30;;;;;;;75.73;46.37;;;3.60;99.90;;;;;;6206104;23;20472;-34
2022/03/21 00:55:56;;;;;;;74.00;47.40;;;3.60;99.90;;;;;;6207477;23;20016;-35
2022/03/21 00:58:22;;;;;;;68.00;45.67;;;3.60;99.90;;;;;;6187306;23;20024;-34
2022/03/21 01:00:48;;;;;;;73.57;48.10;;;3.50;99.90;;;;;;6205179;23;20029;-35
2022/03/21 01:03:14;;;;;;;72.87;47.23;;;3.50;99.90;;;;;;6206809;23;20476;-34
2022/03/21 01:05:40;;;;;;;73.67;47.43;;;3.50;99.90;;;;;;6206414;23;20034;-35
2022/03/21 01:08:06;;;;;;;72.07;45.73;;;3.50;99.90;;;;;;6184264;23;20028;-32
2022/03/21 01:10:33;;;;;;;68.87;43.57;;;3.50;99.90;;;;;;6205154;23;20024;-35
2022/03/21 01:12:59;;;;;;;71.10;44.70;;;3.40;99.90;;;;;;6206594;23;20020;-32
2022/03/21 01:15:27;;;;;;;70.87;45.23;;;3.40;99.90;;;;;;6206325;23;20514;-34
2022/03/21 01:17:54;;;;;;;71.30;43.20;;;3.40;99.90;;;;;;6185020;23;20095;-34
2022/03/21 01:20:21;;;;;;;68.43;44.37;;;3.30;99.90;;;;;;6206493;23;20087;-35
2022/03/21 01:22:47;;;;;;;73.00;47.33;;;3.30;99.90;;;;;;6206625;23;20471;-33
2022/03/21 01:25:13;;;;;;;66.70;42.37;;;3.30;99.90;;;;;;6206844;23;20016;-31
2022/03/21 01:27:40;;;;;;;67.97;43.73;;;3.20;99.90;;;;;;6187391;23;20032;-34
2022/03/21 01:30:11;;;;;;;72.73;45.27;;;3.20;99.90;;;;;;6204232;23;20028;-32
2022/03/21 01:32:38;;;;;;;65.65;42.50;;;3.10;99.90;;;;;;6206331;23;20025;-35
2022/03/21 01:35:05;;;;;;;69.70;43.13;;;3.10;99.90;;;;;;6206020;23;20152;-32
2022/03/21 01:37:31;;;;;;;64.00;40.77;;;3.10;99.90;;;;;;6188261;23;20115;-34
2022/03/21 01:39:57;;;;;;;72.37;44.60;;;3.10;99.90;;;;;;6204005;23;20538;-36
2022/03/21 01:42:23;;;;;;;68.77;41.77;;;3.10;99.90;;;;;;6203805;23;20240;-37
2022/03/21 01:44:53;;;;;;;68.03;41.57;;;3.10;99.90;;;;;;6207222;23;20029;-34
2022/03/21 01:47:19;;;;;;;67.00;41.63;;;3.10;99.90;;;;;;6185044;23;20016;-34
2022/03/21 01:49:45;;;;;;;69.40;41.13;;;3.10;99.90;;;;;;6207185;23;20016;-36
2022/03/21 01:52:12;;;;;;;68.03;42.10;;;3.10;99.90;;;;;;6205442;23;20021;-37
2022/03/21 01:57:24;;;;;;;57.27;38.00;;;3.00;99.90;;;;;;6186924;23;20137;-37
2022/03/21 01:59:50;;;;;;;65.93;39.37;;;3.00;99.90;;;;;;6206682;23;20357;-36
2022/03/21 02:02:17;;;;;;;66.97;41.60;;;3.00;99.90;;;;;;6205240;23;20387;-36
2022/03/21 02:04:42;;;;;;;69.27;42.67;;;2.90;99.90;;;;;;6204451;23;20446;-38
2022/03/21 02:07:08;;;;;;;68.00;41.47;;;2.90;99.90;;;;;;6186373;23;20723;-34
2022/03/21 02:09:35;;;;;;;66.20;40.20;;;2.90;99.90;;;;;;6206400;23;20020;-33
2022/03/21 02:12:01;;;;;;;61.00;39.90;;;2.90;99.90;;;;;;6204272;23;20388;-31
2022/03/21 02:14:27;;;;;;;61.63;37.77;;;2.90;99.90;;;;;;6205192;23;20020;-33
2022/03/21 02:16:52;;;;;;;60.33;38.07;;;2.90;99.90;;;;;;6187645;23;20023;-32
2022/03/21 02:19:30;;;;;;;60.97;37.23;;;2.80;99.90;;;;;;6205031;23;20059;-35
2022/03/21 02:22:24;;;;;;;57.73;36.67;;;2.80;99.90;;;;;;6206305;23;20017;-33
2022/03/21 02:25:16;;;;;;;63.80;38.93;;;2.80;99.90;;;;;;6205351;23;20107;-34
2022/03/21 02:27:45;;;;;;;59.80;37.23;;;2.70;99.90;;;;;;6186980;23;20338;-34
2022/03/21 02:30:12;;;;;;;55.43;36.03;;;2.60;99.90;;;;;;6206104;23;20017;-32
2022/03/21 02:32:37;;;;;;;63.67;38.33;;;2.60;99.90;;;;;;6203634;23;20021;-33
2022/03/21 02:35:04;;;;;;;66.20;39.93;;;2.60;99.90;;;;;;6205125;23;20024;-35
2022/03/21 02:37:31;;;;;;;72.60;42.97;;;2.50;99.90;;;;;;6185071;23;20028;-35
2022/03/21 02:39:58;;;;;;;66.23;41.10;;;2.50;99.90;;;;;;6178941;23;20032;-33
2022/03/21 02:42:24;;;;;;;69.33;41.80;;;2.50;99.90;;;;;;6205654;23;20035;-35
2022/03/21 02:44:50;;;;;;;71.00;42.53;;;2.50;99.90;;;;;;6205989;23;20017;-36
2022/03/21 02:47:16;;;;;;;67.27;40.60;;;2.40;99.90;;;;;;6184514;23;20031;-35
2022/03/21 02:49:41;;;;;;;65.27;40.33;;;2.40;99.90;;;;;;6205915;23;20048;-35
2022/03/21 02:52:09;;;;;;;59.43;37.10;;;2.40;99.90;;;;;;6205331;23;20099;-33
2022/03/21 02:54:35;;;;;;;62.43;38.90;;;2.40;99.90;;;;;;6206646;23;20083;-35
2022/03/21 02:57:01;;;;;;;61.97;38.17;;;2.40;99.90;;;;;;6186721;23;20017;-32
2022/03/21 02:59:28;;;;;;;63.40;38.07;;;2.40;99.90;;;;;;6204842;23;20017;-33
2022/03/21 03:01:54;;;;;;;58.03;35.20;;;2.40;99.90;;;;;;6205934;23;20395;-35
2022/03/21 03:04:24;;;;;;;59.60;34.60;;;2.50;99.90;;;;;;6205032;23;20103;-35
2022/03/21 03:06:50;;;;;;;57.37;35.77;;;2.40;99.90;;;;;;6187131;23;20898;-32
2022/03/21 03:09:16;;;;;;;55.80;36.00;;;2.40;99.90;;;;;;6205152;23;20024;-34
2022/03/21 03:11:41;;;;;;;62.47;36.93;;;2.40;99.90;;;;;;6205957;23;20020;-32
2022/03/21 03:14:07;;;;;;;60.20;36.70;;;2.40;99.90;;;;;;6204539;23;20024;-35
2022/03/21 03:16:34;;;;;;;57.77;35.67;;;2.40;99.90;;;;;;6187030;23;20024;-34
2022/03/21 03:19:00;;;;;;;61.67;35.03;;;2.40;99.90;;;;;;6202287;23;20382;-35
2022/03/21 03:21:28;;;;;;;56.63;33.83;;;2.40;99.90;;;;;;6206084;23;20054;-35
2022/03/21 03:23:56;;;;;;;57.23;33.90;;;2.30;99.90;;;;;;6204819;23;20025;-33
2022/03/21 03:26:22;;;;;;;54.93;33.23;;;2.30;99.90;;;;;;6190438;23;20036;-33
2022/03/21 03:28:47;;;;;;;50.77;31.17;;;2.30;99.90;;;;;;6200451;23;20029;-32
2022/03/21 03:31:15;;;;;;;45.63;29.20;;;2.20;99.90;;;;;;6205827;23;20060;-31
2022/03/21 03:33:42;;;;;;;52.23;31.10;;;2.20;99.90;;;;;;6202892;23;20021;-34
2022/03/21 03:36:08;;;;;;;49.43;29.17;;;2.10;99.90;;;;;;6197867;23;20133;-36
2022/03/21 03:38:34;;;;;;;48.50;29.10;;;2.10;99.90;;;;;;6168616;23;20028;-34
2022/03/21 03:41:00;;;;;;;49.07;29.40;;;2.00;99.90;;;;;;6205493;23;20087;-33
2022/03/21 03:43:26;;;;;;;47.53;28.87;;;2.10;99.90;;;;;;6205098;23;20136;-36
2022/03/21 03:45:52;;;;;;;45.37;27.63;;;2.00;99.90;;;;;;6203781;23;20021;-33
2022/03/21 03:48:21;;;;;;;46.17;27.53;;;2.00;99.90;;;;;;6185670;23;20460;-34
2022/03/21 03:50:47;;;;;;;46.97;27.10;;;2.00;99.90;;;;;;6205452;23;20023;-35
2022/03/21 03:53:14;;;;;;;44.83;27.60;;;1.90;99.90;;;;;;6204805;23;20099;-32
2022/03/21 03:55:40;;;;;;;44.13;26.60;;;1.90;99.90;;;;;;6205701;23;20017;-35
2022/03/21 03:58:06;;;;;;;47.70;28.50;;;1.80;99.90;;;;;;6185730;23;20407;-33
2022/03/21 04:00:32;;;;;;;46.00;28.00;;;1.80;99.90;;;;;;6204633;23;20012;-36
2022/03/21 04:05:42;;;;;;;40.37;25.03;;;1.80;99.90;;;;;;6205071;23;20013;-34
2022/03/21 04:08:09;;;;;;;43.63;27.27;;;1.80;99.90;;;;;;6182683;23;20135;-36
2022/03/21 04:10:34;;;;;;;45.00;27.17;;;1.70;99.90;;;;;;6205424;23;20438;-35
2022/03/21 04:13:00;;;;;;;42.13;24.87;;;1.70;99.90;;;;;;6204145;23;20021;-34
2022/03/21 04:15:26;;;;;;;41.83;25.23;;;1.70;99.90;;;;;;6204766;23;20024;-35
2022/03/21 04:17:53;;;;;;;42.50;26.30;;;1.70;99.90;;;;;;6183866;23;20025;-35
2022/03/21 04:20:23;;;;;;;47.73;26.77;;;1.60;99.90;;;;;;6205131;23;20110;-35
2022/03/21 04:22:48;;;;;;;41.17;25.63;;;1.60;99.90;;;;;;6204390;23;20095;-33
2022/03/21 04:25:14;;;;;;;40.17;24.43;;;1.60;99.90;;;;;;6205461;23;20152;-34
2022/03/21 04:27:40;;;;;;;45.23;25.23;;;1.50;99.90;;;;;;6184051;23;20021;-34
2022/03/21 04:30:07;;;;;;;48.47;27.37;;;1.50;99.90;;;;;;6204603;23;20103;-35
2022/03/21 04:32:33;;;;;;;47.83;27.87;;;1.50;99.90;;;;;;6204348;23;20029;-36
2022/03/21 04:34:59;;;;;;;43.53;26.07;;;1.60;99.90;;;;;;6202421;23;20078;-35
2022/03/21 04:37:25;;;;;;;43.97;25.17;;;1.50;99.90;;;;;;6185677;23;20460;-34
2022/03/21 04:39:51;;;;;;;41.33;24.23;;;1.50;99.90;;;;;;6205538;23;20051;-35
2022/03/21 04:42:17;;;;;;;45.27;24.00;;;1.50;99.90;;;;;;6204538;23;20028;-35
2022/03/21 04:44:44;;;;;;;38.17;23.83;;;1.40;99.90;;;;;;6205501;23;20063;-36
2022/03/21 04:47:10;;;;;;;42.47;23.77;;;1.40;99.90;;;;;;6185805;23;20074;-35
2022/03/21 04:49:36;;;;;;;42.93;24.07;;;1.40;99.90;;;;;;6204694;23;20112;-36
2022/03/21 04:52:02;;;;;;;42.33;26.07;;;1.40;99.90;;;;;;6204907;23;20052;-34
2022/03/21 04:54:28;;;;;;;46.83;26.47;;;1.30;99.90;;;;;;6202165;23;20037;-33
2022/03/21 04:56:55;;;;;;;52.00;30.37;;;1.30;99.90;;;;;;6186956;23;20031;-35
2022/03/21 04:59:20;;;;;;;52.43;30.57;;;1.30;99.90;;;;;;6203843;23;20345;-35
2022/03/21 05:01:47;;;;;;;62.30;34.57;;;1.30;99.90;;;;;;6203489;23;20287;-35
2022/03/21 05:04:13;;;;;;;54.63;30.63;;;1.30;99.90;;;;;;6204055;23;20037;-33
2022/03/21 05:06:39;;;;;;;45.07;27.03;;;1.30;99.90;;;;;;6188128;23;20051;-36
2022/03/21 05:09:06;;;;;;;45.93;26.63;;;1.30;99.90;;;;;;6201573;23;20028;-34
2022/03/21 05:11:31;;;;;;;44.23;25.53;;;1.30;99.90;;;;;;6203391;23;20017;-35
2022/03/21 05:13:57;;;;;;;47.30;28.80;;;1.30;99.90;;;;;;6204442;23;20414;-35
2022/03/21 05:16:23;;;;;;;48.23;26.50;;;1.30;99.90;;;;;;6204805;23;20532;-36
2022/03/21 05:18:50;;;;;;;44.63;25.87;;;1.30;99.90;;;;;;6167930;23;20048;-32
2022/03/21 05:21:16;;;;;;;43.27;24.20;;;1.40;99.90;;;;;;6207144;23;20055;-36
2022/03/21 05:31:55;;;;;;;45.50;25.13;;;1.30;99.90;;;;;;6206285;23;20530;-37
2022/03/21 05:37:06;;;;;;;39.87;23.47;;;1.30;99.90;;;;;;6187727;23;20353;-36
2022/03/21 05:39:32;;;;;;;39.03;22.73;;;1.30;99.90;;;;;;6206579;23;20016;-35
2022/03/21 05:41:57;;;;;;;38.07;22.13;;;1.30;99.90;;;;;;6206400;23;20103;-35
2022/03/21 05:44:26;;;;;;;40.10;22.60;;;1.20;99.90;;;;;;6206200;23;20071;-34
2022/03/21 05:46:52;;;;;;;39.17;22.90;;;1.20;99.90;;;;;;6188502;23;20096;-36
2022/03/21 05:49:17;;;;;;;36.63;22.27;;;1.10;99.90;;;;;;6205312;23;20472;-35
2022/03/21 05:51:43;;;;;;;50.63;23.83;;;1.10;99.90;;;;;;6206735;23;20357;-35
2022/03/21 05:54:12;;;;;;;66.07;25.20;;;1.00;99.90;;;;;;6205657;23;20016;-36
2022/03/21 05:56:42;;;;;;;36.67;20.97;;;1.10;99.90;;;;;;6189895;23;20484;-35
2022/03/21 06:01:53;;;;;;;29.73;16.53;;;0.90;99.90;;;;;;6206654;23;20067;-36
2022/03/21 06:04:19;;;;;;;41.77;17.40;;;0.90;99.90;;;;;;6203989;23;20353;-35
2022/03/21 06:06:46;;;;;;;87.07;19.30;;;0.90;99.90;;;;;;6187515;23;20106;-36
2022/03/21 06:09:12;;;;;;;43.80;14.90;;;0.90;99.90;;;;;;6205181;23;20055;-36
2022/03/21 06:11:38;;;;;;;34.60;14.13;;;0.80;99.90;;;;;;6204761;23;20130;-35
2022/03/21 06:14:05;;;;;;;21.63;12.90;;;0.90;99.90;;;;;;6205400;23;20075;-36
2022/03/21 06:16:34;;;;;;;24.20;13.33;;;0.90;99.90;;;;;;6188106;23;20515;-35
2022/03/21 06:19:00;;;;;;;19.17;12.10;;;0.90;99.90;;;;;;6203205;23;20027;-36
2022/03/21 06:21:30;;;;;;;18.47;11.57;;;0.90;99.90;;;;;;6206147;23;20186;-35
2022/03/21 06:23:59;;;;;;;37.97;13.50;;;0.90;99.90;;;;;;6205170;23;20021;-35
2022/03/21 06:26:25;;;;;;;20.60;13.83;;;0.90;99.90;;;;;;6190744;23;20022;-35
2022/03/21 06:28:50;;;;;;;19.30;12.80;;;0.90;99.90;;;;;;6201533;23;20104;-35
2022/03/21 06:31:16;;;;;;;20.27;13.17;;;1.00;99.90;;;;;;6206209;23;20059;-36
2022/03/21 06:33:42;;;;;;;19.23;12.67;;;1.00;99.90;;;;;;6204662;23;20051;-35
2022/03/21 06:36:08;;;;;;;20.37;12.73;;;1.10;99.90;;;;;;6199091;23;20027;-35
2022/03/21 06:38:34;;;;;;;21.23;12.50;;;1.10;99.90;;;;;;6194727;23;20017;-35
2022/03/21 06:41:00;;;;;;;18.73;12.00;;;1.20;99.90;;;;;;6205549;23;20463;-36
2022/03/21 06:43:27;;;;;;;24.50;15.13;;;1.20;99.90;;;;;;6205045;23;20048;-35
2022/03/21 06:45:54;;;;;;;24.77;15.37;;;1.30;99.90;;;;;;6206262;23;20019;-35
2022/03/21 06:48:22;;;;;;;30.87;17.00;;;1.40;99.90;;;;;;6186515;23;20016;-36
2022/03/21 06:50:49;;;;;;;28.10;16.77;;;1.40;99.90;;;;;;6205283;23;20029;-36
2022/03/21 06:53:16;;;;;;;33.73;19.53;;;1.60;99.90;;;;;;6203314;23;20054;-34
2022/03/21 06:55:42;;;;;;;36.97;21.70;;;1.60;99.90;;;;;;6205721;23;20464;-36
2022/03/21 06:58:11;;;;;;;40.90;22.60;;;1.70;99.90;;;;;;6185956;23;20029;-34
2022/03/21 07:00:39;;;;;;;41.37;25.00;;;1.90;99.90;;;;;;6205795;23;20504;-35
2022/03/21 07:03:05;;;;;;;48.67;26.40;;;1.90;99.90;;;;;;6204874;23;20024;-33
2022/03/21 07:05:31;;;;;;;53.00;26.13;;;2.10;99.90;;;;;;6205268;23;20019;-35
2022/03/21 07:07:57;;;;;;;48.67;27.93;;;2.20;99.90;;;;;;6184614;23;20087;-37
2022/03/21 07:10:23;;;;;;;51.70;28.53;;;2.30;99.90;;;;;;6205405;23;20454;-35
2022/03/21 07:12:48;;;;;;;48.87;27.50;;;2.40;99.90;;;;;;6203151;23;20518;-33
2022/03/21 07:15:15;;;;;;;46.23;25.60;;;2.50;99.90;;;;;;6205282;23;20091;-32
2022/03/21 07:17:42;;;;;;;46.03;26.27;;;2.50;99.90;;;;;;6185323;23;20102;-34
2022/03/21 07:20:11;;;;;;;55.60;29.60;;;2.60;99.90;;;;;;6203562;23;20526;-35
2022/03/21 07:22:38;;;;;;;52.63;30.40;;;2.70;99.90;;;;;;6202430;23;20074;-36
2022/03/21 07:25:06;;;;;;;61.03;31.77;;;2.80;99.90;;;;;;6204966;23;20016;-36
2022/03/21 07:27:32;;;;;;;51.30;29.80;;;2.90;99.90;;;;;;6186043;23;20135;-35
2022/03/21 07:29:58;;;;;;;57.53;32.70;;;3.00;99.90;;;;;;6204860;23;20028;-37
2022/03/21 07:32:24;;;;;;;56.67;30.83;;;3.10;99.90;;;;;;6202294;23;20020;-36
2022/03/21 07:34:49;;;;;;;60.17;32.43;;;3.20;99.90;;;;;;6205313;23;20090;-33
2022/03/21 07:37:15;;;;;;;62.03;34.47;;;3.30;99.90;;;;;;6185453;23;20043;-36
2022/03/21 07:39:44;;;;;;;64.63;36.30;;;3.30;99.90;;;;;;6205568;23;20340;-38
2022/03/21 07:42:14;;;;;;;68.83;37.20;;;3.50;99.90;;;;;;6204596;23;20390;-37
2022/03/21 07:47:24;;;;;;;62.40;36.37;;;3.70;99.90;;;;;;6183193;23;20407;-37
2022/03/21 07:49:52;;;;;;;64.37;38.83;;;3.90;99.90;;;;;;6205212;23;20078;-38
2022/03/21 07:52:19;;;;;;;69.83;41.20;;;3.90;99.90;;;;;;6177529;23;20037;-36
2022/03/21 07:54:47;;;;;;;71.60;42.57;;;4.10;99.90;;;;;;6205355;23;20522;-34
2022/03/21 07:57:12;;;;;;;74.43;44.40;;;4.10;99.90;;;;;;6185795;23;20341;-37
2022/03/21 07:59:39;;;;;;;81.03;46.97;;;4.20;99.90;;;;;;6178542;23;20082;-36
2022/03/21 08:02:05;;;;;;;69.33;40.40;;;4.40;99.90;;;;;;6201779;23;20100;-38
2022/03/21 08:04:32;;;;;;;67.23;39.40;;;4.40;99.90;;;;;;6205112;23;20024;-36
2022/03/21 08:06:59;;;;;;;64.90;38.50;;;4.60;99.90;;;;;;6183962;23;20629;-32
2022/03/21 08:09:27;;;;;;;62.30;36.30;;;4.70;99.90;;;;;;6203162;23;20028;-36
2022/03/21 08:11:54;;;;;;;61.10;35.90;;;4.80;99.90;;;;;;6205126;23;20467;-36
2022/03/21 08:14:21;;;;;;;57.80;34.03;;;4.90;99.90;;;;;;6202885;23;20027;-33
2022/03/21 08:16:46;;;;;;;56.97;35.43;;;5.10;99.90;;;;;;6186949;23;20020;-32
2022/03/21 08:19:12;;;;;;;59.13;34.93;;;5.20;99.90;;;;;;6177682;23;20028;-32
2022/03/21 08:21:38;;;;;;;52.00;34.30;;;5.30;99.90;;;;;;6205129;23;20052;-35
2022/03/21 08:24:04;;;;;;;62.70;35.30;;;5.40;99.90;;;;;;6203724;23;20029;-35
2022/03/21 08:26:29;;;;;;;56.70;36.07;;;5.50;99.90;;;;;;6190663;23;20043;-35
2022/03/21 08:28:55;;;;;;;56.23;34.37;;;5.60;99.90;;;;;;6200582;23;20497;-34
2022/03/21 08:31:21;;;;;;;52.87;34.07;;;5.70;99.90;;;;;;6204980;23;20009;-32
2022/03/21 08:33:47;;;;;;;53.33;34.70;;;5.80;99.90;;;;;;6202718;23;20021;-34
2022/03/21 08:36:13;;;;;;;55.47;32.83;;;6.00;99.90;;;;;;6194584;23;20025;-36
2022/03/21 08:38:40;;;;;;;50.67;32.03;;;6.10;99.90;;;;;;6197318;23;20051;-34
2022/03/21 08:41:06;;;;;;;55.30;32.10;;;6.20;99.90;;;;;;6205064;23;20405;-35
2022/03/21 08:43:31;;;;;;;49.43;31.03;;;6.30;99.90;;;;;;6204287;23;20401;-35
2022/03/21 08:45:57;;;;;;;50.17;31.87;;;6.60;99.90;;;;;;6205604;23;20044;-35
2022/03/21 08:49:23;;;;;;;52.60;31.13;;;6.60;99.90;;;;;;6184110;23;20400;-35
2022/03/21 08:51:10;;;;;;;47.87;31.13;;;6.60;99.90;;;;;;6206689;23;20388;-32
2022/03/21 08:53:36;;;;;;;48.87;30.93;;;6.80;99.90;;;;;;6204492;23;20029;-31
2022/03/21 08:56:02;;;;;;;52.93;32.57;;;6.80;99.90;;;;;;6205708;23;20412;-34
2022/03/21 08:58:27;;;;;;;51.63;30.53;;;7.00;99.90;;;;;;6187312;23;20108;-35
2022/03/21 09:00:53;;;;;;;51.10;31.73;;;7.20;99.90;;;;;;6206681;23;20052;-34
2022/03/21 09:03:20;;;;;;;47.03;30.10;;;7.30;99.90;;;;;;6205510;23;20028;-36
2022/03/21 09:05:46;;;;;;;49.40;30.77;;;7.40;99.90;;;;;;6207159;23;20012;-37
2022/03/21 09:08:12;;;;;;;48.07;28.80;;;7.50;99.90;;;;;;6186699;23;20445;-36
2022/03/21 09:10:38;;;;;;;44.80;28.03;;;7.60;99.90;;;;;;6204718;23;20215;-34
2022/03/21 09:13:05;;;;;;;46.87;28.87;;;7.70;99.90;;;;;;6206865;23;20432;-35
2022/03/21 09:15:31;;;;;;;49.77;28.13;;;7.70;99.90;;;;;;6206717;23;20409;-36
2022/03/21 09:17:57;;;;;;;46.27;28.10;;;7.90;99.90;;;;;;6187458;23;20092;-37
2022/03/21 09:20:23;;;;;;;41.47;26.93;;;7.90;99.90;;;;;;6206621;23;20343;-35
2022/03/21 09:22:49;;;;;;;43.77;28.47;;;8.00;99.90;;;;;;6195485;23;20024;-35
2022/03/21 09:25:17;;;;;;;44.70;27.77;;;8.10;99.90;;;;;;6203691;23;20020;-37
2022/03/21 09:27:42;;;;;;;40.40;26.40;;;8.30;99.90;;;;;;6170072;23;20024;-37
2022/03/21 09:30:10;;;;;;;43.33;28.77;;;8.30;99.90;;;;;;6203163;23;20031;-36
2022/03/21 09:32:36;;;;;;;42.13;26.40;;;8.30;99.90;;;;;;6205575;23;20024;-33
2022/03/21 09:35:02;;;;;;;44.53;27.13;;;8.40;99.90;;;;;;6204250;23;20059;-36
2022/03/21 09:37:28;;;;;;;43.40;27.27;;;8.50;99.90;;;;;;6186592;23;20028;-37
2022/03/21 09:39:53;;;;;;;42.03;25.30;;;8.60;99.90;;;;;;6205449;23;20091;-36
2022/03/21 09:42:20;;;;;;;37.20;26.13;;;8.70;99.90;;;;;;6202628;23;20348;-36
2022/03/21 09:44:52;;;;;;;35.17;23.83;;;8.90;99.90;;;;;;6205661;23;20020;-34
2022/03/21 09:50:10;;;;;;;35.57;24.80;;;9.20;99.90;;;;;;6204841;23;20078;-34
2022/03/21 09:52:36;;;;;;;35.13;23.37;;;9.30;99.90;;;;;;6205200;23;20075;-35
2022/03/21 09:55:02;;;;;;;35.03;22.80;;;9.40;99.90;;;;;;6204739;23;20021;-36
2022/03/21 09:57:30;;;;;;;32.67;22.00;;;9.50;99.90;;;;;;6185329;23;20357;-36
2022/03/21 09:59:57;;;;;;;37.03;23.03;;;9.70;99.90;;;;;;6204312;23;20476;-36
2022/03/21 10:02:24;;;;;;;35.10;22.13;;;9.70;99.90;;;;;;6202439;23;20016;-35
2022/03/21 10:04:50;;;;;;;34.57;21.73;;;9.80;99.90;;;;;;6203007;23;20044;-35
2022/03/21 10:07:24;;;;;;;32.17;20.90;;;9.90;99.90;;;;;;6185248;23;20031;-37
2022/03/21 10:10:09;;;;;;;29.43;19.17;;;10.00;99.90;;;;;;6204364;23;20021;-36
2022/03/21 10:12:36;;;;;;;33.80;20.77;;;10.10;99.90;;;;;;6201586;23;20021;-36
2022/03/21 10:15:06;;;;;;;31.03;19.90;;;10.30;99.90;;;;;;6204739;23;20021;-38
2022/03/21 10:17:32;;;;;;;30.43;19.73;;;10.30;99.90;;;;;;6184413;23;20019;-36
2022/03/21 10:19:58;;;;;;;31.03;18.93;;;10.50;99.90;;;;;;6202724;23;20029;-37
2022/03/21 10:22:33;;;;;;;26.57;17.93;;;10.50;99.90;;;;;;6204375;23;20025;-36
2022/03/21 10:25:07;;;;;;;28.27;18.27;;;10.60;99.90;;;;;;6204514;23;20245;-33
2022/03/21 10:27:38;;;;;;;27.77;18.13;;;10.70;99.90;;;;;;6185826;23;20020;-37
2022/03/21 10:30:13;;;;;;;26.02;18.55;;;10.80;99.90;;;;;;6204796;23;20024;-34
2022/03/21 10:32:46;;;;;;;25.13;17.07;;;10.90;99.90;;;;;;6204361;23;20032;-37
2022/03/21 10:35:30;;;;;;;27.00;17.10;;;11.00;99.90;;;;;;6204658;23;20464;-35
2022/03/21 10:38:04;;;;;;;26.00;17.57;;;11.10;99.90;;;;;;6186776;23;20022;-36
2022/03/21 10:40:42;;;;;;;23.93;16.73;;;11.20;99.90;;;;;;6204107;23;20016;-33
2022/03/21 10:43:14;;;;;;;27.73;18.47;;;11.30;99.90;;;;;;6202136;23;20029;-37
2022/03/21 10:45:49;;;;;;;27.10;18.33;;;11.40;99.90;;;;;;6202866;23;20020;-35
2022/03/21 10:48:20;;;;;;;25.23;16.88;;;11.40;99.90;;;;;;6186291;23;20028;-36
2022/03/21 10:50:50;;;;;;;27.70;17.48;;;11.50;99.90;;;;;;6204336;23;20027;-36
2022/03/21 10:53:25;;;;;;;28.77;18.40;;;11.60;99.90;;;;;;6204454;23;20028;-36
2022/03/21 10:55:53;;;;;;;29.63;18.80;;;11.60;99.90;;;;;;6205466;23;20047;-34
2022/03/21 10:58:33;;;;;;;29.90;17.83;;;11.80;99.90;;;;;;6181818;23;20028;-36
2022/03/21 11:01:17;;;;;;;27.83;18.10;;;11.80;99.90;;;;;;6200977;23;20021;-36
2022/03/21 11:03:49;;;;;;;29.33;19.73;;;11.90;99.90;;;;;;6201245;23;20698;-37
2022/03/21 11:06:16;;;;;;;28.00;17.55;;;12.00;99.90;;;;;;6192435;23;20348;-36
2022/03/21 11:08:44;;;;;;;27.75;18.15;;;12.10;99.90;;;;;;6194983;23;20063;-35
2022/03/21 11:11:10;;;;;;;30.13;19.13;;;12.20;99.90;;;;;;6201247;23;20020;-34
2022/03/21 11:13:38;;;;;;;30.15;19.48;;;12.30;99.90;;;;;;6188477;23;20020;-34
2022/03/21 11:16:05;;;;;;;28.90;19.48;;;12.30;99.90;;;;;;6203585;23;20555;-34
2022/03/21 11:18:31;;;;;;;29.33;18.80;;;12.30;99.90;;;;;;6183004;23;20548;-37
2022/03/21 11:20:58;;;;;;;26.73;18.60;;;12.40;99.90;;;;;;6186827;23;20099;-36
2022/03/21 11:23:26;;;;;;;29.33;19.52;;;12.40;99.90;;;;;;6202346;23;20025;-37
2022/03/21 11:26:22;;;;;;;26.38;18.13;;;12.50;99.90;;;;;;6204290;23;20012;-35
2022/03/21 11:29:06;;;;;;;28.95;19.48;;;12.60;99.90;;;;;;6146989;23;20104;-36
2022/03/21 11:32:06;;;;;;;26.23;19.15;;;12.60;99.90;;;;;;6204111;23;20035;-35
2022/03/21 11:34:56;;;;;;;27.70;18.45;;;12.70;99.90;;;;;;6201241;23;20368;-35
2022/03/21 11:37:31;;;;;;;29.17;18.60;;;12.80;99.90;;;;;;6185637;23;20024;-35
2022/03/21 11:40:26;;;;;;;27.92;18.83;;;12.80;99.90;;;;;;6204092;23;20134;-36
2022/03/21 11:42:53;;;;;;;31.40;18.98;;;12.90;99.90;;;;;;6203166;23;20075;-36
2022/03/21 11:45:34;;;;;;;28.30;19.65;;;13.00;99.90;;;;;;6203759;23;20020;-35
2022/03/21 11:48:18;;;;;;;28.17;19.67;;;13.10;99.90;;;;;;6184121;23;20028;-35
2022/03/21 11:51:16;;;;;;;27.13;18.33;;;13.00;99.90;;;;;;6201981;23;20095;-36
2022/03/21 11:53:48;;;;;;;27.30;18.27;;;13.30;99.90;;;;;;6202144;23;20115;-36
2022/03/21 11:56:18;;;;;;;26.92;18.15;;;13.30;99.90;;;;;;6193478;23;20021;-35
2022/03/21 11:58:45;;;;;;;29.50;19.27;;;13.40;99.90;;;;;;6198194;23;20364;-37
2022/03/21 12:01:16;;;;;;;29.63;19.02;;;13.60;99.90;;;;;;6203989;23;20021;-34
2022/03/21 12:03:43;;;;;;;;;;;13.60;99.90;;;;;;6202472;23;20025;-36
2022/03/21 12:06:24;;;;;;;28.60;18.60;;;13.70;99.90;;;;;;6196908;23;20018;-37
2022/03/21 12:08:55;;;;;;;25.10;17.83;;;13.80;99.90;;;;;;6198948;23;20084;-38
2022/03/21 12:11:39;;;;;;;24.30;17.42;;;13.80;99.90;;;;;;6191690;23;20233;-35
2022/03/21 12:14:26;;;;;;;24.95;17.15;;;13.90;99.30;;;;;;6202667;23;20036;-35
2022/03/21 12:17:00;;;;;;;29.42;19.00;;;14.00;99.00;;;;;;6185477;23;20024;-37
2022/03/21 12:19:47;;;;;;;30.00;17.90;;;14.10;99.20;;;;;;6203223;23;20452;-37
2022/03/21 12:24:55;;;;;;;26.33;18.08;;;14.10;98.60;;;;;;6205811;23;20028;-37
2022/03/21 12:27:33;;;;;;;30.98;19.48;;;14.20;99.00;;;;;;6186583;23;20348;-36
2022/03/21 12:30:21;;;;;;;28.52;18.20;;;14.20;97.90;;;;;;6204520;23;20024;-34
2022/03/21 12:33:14;;;;;;;30.10;19.27;;;14.20;96.30;;;;;;6179096;23;20053;-36
2022/03/21 12:35:44;;;;;;;25.23;17.60;;;14.20;96.70;;;;;;6203642;23;20101;-36
2022/03/21 12:38:25;;;;;;;27.77;18.65;;;14.20;97.30;;;;;;6187871;23;20020;-36
2022/03/21 12:41:00;;;;;;;25.90;17.52;;;14.20;95.10;;;;;;6203670;23;20031;-36
2022/03/21 12:43:41;;;;;;;26.60;16.83;;;14.20;95.80;;;;;;6205574;23;20389;-36
2022/03/21 12:46:06;;;;;;;26.45;17.17;;;14.20;96.80;;;;;;6202694;23;20028;-37
2022/03/21 12:48:38;;;;;;;26.88;18.27;;;14.20;96.80;;;;;;6191606;23;20024;-36
2022/03/21 12:51:05;;;;;;;28.05;17.65;;;14.20;95.80;;;;;;6205523;23;20440;-34
2022/03/21 12:53:44;;;;;;;25.30;17.95;;;14.30;96.80;;;;;;6205250;23;20108;-37
2022/03/21 12:56:12;;;;;;;27.48;16.67;;;14.30;95.00;;;;;;6197268;23;20074;-37
2022/03/21 12:58:42;;;;;;;28.15;18.55;;;14.30;95.40;;;;;;6197691;23;20087;-37
2022/03/21 13:01:09;;;;;;;27.73;17.85;;;14.40;95.30;;;;;;6204683;23;20075;-36
2022/03/21 13:03:34;;;;;;;26.95;17.08;;;14.50;94.70;;;;;;6203416;23;20029;-35
2022/03/21 13:11:35;;;;;;;21.67;16.42;;;14.60;94.50;;;;;;6205041;23;20467;-36
2022/03/21 13:14:05;;;;;;;22.35;16.02;;;14.60;94.80;;;;;;6205037;23;20024;-36
2022/03/21 13:16:38;;;;;;;25.00;15.68;;;14.70;95.00;;;;;;6190625;23;20825;-36